createdAt,value
2018-01-11T00:01:21.057Z,25.67
2018-01-11T00:03:48.632Z,24.30
2018-01-11T00:06:16.220Z,27.90
2018-01-11T00:08:43.804Z,26.47
2018-01-11T00:11:11.334Z,25.57
2018-01-11T00:13:38.937Z,27.67
2018-01-11T00:16:06.510Z,24.70
2018-01-11T00:18:34.044Z,28.37
2018-01-11T00:21:01.622Z,25.80
2018-01-11T00:23:29.181Z,25.57
2018-01-11T00:25:56.905Z,25.93
2018-01-11T00:28:24.456Z,27.33
2018-01-11T00:30:52.057Z,25.10
2018-01-11T00:33:19.600Z,25.63
2018-01-11T00:35:47.368Z,26.77
2018-01-11T00:38:14.954Z,23.37
2018-01-11T00:40:42.497Z,23.60
2018-01-11T00:43:10.105Z,24.80
2018-01-11T00:45:38.721Z,26.27
2018-01-11T00:48:06.310Z,27.07
2018-01-11T00:50:33.850Z,26.10
2018-01-11T00:53:01.566Z,27.13
2018-01-11T00:55:29.916Z,23.93
2018-01-11T00:57:57.463Z,25.70
2018-01-11T01:00:25.148Z,26.40
2018-01-11T01:02:52.764Z,26.47
2018-01-11T01:05:20.350Z,25.03
2018-01-11T01:07:47.901Z,26.80
2018-01-11T01:10:16.176Z,26.40
2018-01-11T01:12:43.731Z,24.40
2018-01-11T01:15:11.275Z,27.10
2018-01-11T01:17:38.867Z,23.27
2018-01-11T01:20:06.405Z,24.37
2018-01-11T01:22:34.127Z,24.20
2018-01-11T01:25:02.411Z,24.90
2018-01-11T01:27:30.778Z,25.00
2018-01-11T01:29:58.404Z,24.07
2018-01-11T01:32:25.986Z,25.00
2018-01-11T01:34:53.560Z,24.57
2018-01-11T01:37:21.100Z,24.37
2018-01-11T01:39:49.156Z,23.13
2018-01-11T01:42:16.690Z,22.80
2018-01-11T01:44:44.227Z,24.20
2018-01-11T01:47:11.794Z,24.57
2018-01-11T01:49:39.344Z,25.73
2018-01-11T01:52:06.943Z,22.20
2018-01-11T01:54:34.468Z,24.50
2018-01-11T01:57:02.169Z,25.20
2018-01-11T01:59:29.706Z,24.00
2018-01-11T02:01:57.252Z,23.20
2018-01-11T02:04:24.864Z,24.50
2018-01-11T02:06:52.417Z,22.70
2018-01-11T02:09:19.992Z,22.10
2018-01-11T02:11:47.544Z,24.33
2018-01-11T02:14:15.119Z,23.97
2018-01-11T02:16:42.664Z,23.63
2018-01-11T02:19:10.205Z,25.77
2018-01-11T02:21:37.791Z,24.97
2018-01-11T02:24:05.340Z,23.60
2018-01-11T02:26:32.909Z,24.00
2018-01-11T02:29:00.451Z,23.30
2018-01-11T02:31:28.411Z,23.00
2018-01-11T02:33:55.957Z,23.77
2018-01-11T02:36:23.495Z,22.93
2018-01-11T02:38:51.067Z,24.80
2018-01-11T02:41:18.624Z,26.30
2018-01-11T02:43:46.514Z,23.20
2018-01-11T02:46:14.063Z,22.83
2018-01-11T02:48:41.637Z,23.83
2018-01-11T02:51:09.180Z,23.97
2018-01-11T02:53:36.752Z,24.27
2018-01-11T02:56:04.301Z,25.13
2018-01-11T02:58:31.839Z,27.60
2018-01-11T03:01:00.393Z,23.80
2018-01-11T03:03:28.695Z,22.90
2018-01-11T03:05:56.344Z,21.63
2018-01-11T03:08:23.910Z,20.00
2018-01-11T03:10:51.494Z,20.37
2018-01-11T03:13:19.025Z,22.17
2018-01-11T03:15:46.565Z,20.13
2018-01-11T03:18:14.910Z,21.30
2018-01-11T03:20:42.460Z,17.73
2018-01-11T03:23:10.165Z,20.57
2018-01-11T03:25:38.505Z,21.27
2018-01-11T03:28:06.075Z,31.83
2018-01-11T03:30:33.611Z,20.10
2018-01-11T03:33:02.110Z,19.20
2018-01-11T03:35:29.680Z,22.70
2018-01-11T03:37:57.273Z,20.80
2018-01-11T03:40:25.033Z,20.73
2018-01-11T03:42:52.580Z,18.60
2018-01-11T03:45:20.198Z,20.90
2018-01-11T03:47:47.753Z,20.30
2018-01-11T03:50:15.356Z,20.43
2018-01-11T03:52:42.894Z,18.97
2018-01-11T03:55:10.436Z,20.80
2018-01-11T03:57:38.149Z,19.97
2018-01-11T04:00:05.696Z,19.73
2018-01-11T04:02:34.040Z,19.63
2018-01-11T04:05:01.573Z,19.83
2018-01-11T04:07:29.169Z,19.60
2018-01-11T04:09:56.936Z,18.07
2018-01-11T04:12:24.485Z,19.63
2018-01-11T04:14:52.048Z,19.13
2018-01-11T04:17:19.577Z,19.90
2018-01-11T04:19:47.155Z,18.50
2018-01-11T04:22:15.612Z,18.60
2018-01-11T04:24:43.196Z,21.00
2018-01-11T04:27:10.720Z,19.47
2018-01-11T04:29:38.252Z,19.50
2018-01-11T04:32:06.829Z,19.27
2018-01-11T04:34:34.373Z,18.50
2018-01-11T04:37:01.940Z,19.73
2018-01-11T04:39:29.482Z,18.33
2018-01-11T04:41:57.076Z,19.37
2018-01-11T04:44:24.613Z,19.27
2018-01-11T04:46:52.215Z,19.20
2018-01-11T04:49:19.763Z,22.07
2018-01-11T04:51:48.085Z,19.60
2018-01-11T04:54:15.669Z,21.00
2018-01-11T04:56:43.208Z,18.50
2018-01-11T04:59:10.792Z,18.50
2018-01-11T05:01:38.334Z,18.80
2018-01-11T05:04:05.924Z,16.87
2018-01-11T05:06:34.487Z,19.30
2018-01-11T05:09:02.024Z,18.93
2018-01-11T05:11:29.618Z,21.23
2018-01-11T05:13:57.154Z,20.57
2018-01-11T05:16:24.742Z,18.43
2018-01-11T05:18:52.317Z,19.20
2018-01-11T05:21:20.673Z,18.10
2018-01-11T05:23:48.227Z,18.30
2018-01-11T05:26:15.760Z,18.23
2018-01-11T05:28:43.328Z,18.43
2018-01-11T05:31:10.871Z,19.40
2018-01-11T05:33:38.448Z,18.90
2018-01-11T05:36:05.985Z,19.27
2018-01-11T05:38:33.565Z,19.30
2018-01-11T05:41:01.121Z,19.03
2018-01-11T05:43:29.605Z,19.00
2018-01-11T05:45:57.225Z,19.47
2018-01-11T05:48:24.768Z,22.37
2018-01-11T05:50:52.358Z,20.50
2018-01-11T05:53:19.914Z,21.63
2018-01-11T05:55:47.497Z,19.93
2018-01-11T05:58:15.028Z,21.90
2018-01-11T06:00:42.861Z,20.00
2018-01-11T06:03:10.402Z,19.23
2018-01-11T06:05:37.940Z,24.30
2018-01-11T06:08:05.616Z,24.37
2018-01-11T06:10:34.070Z,22.57
2018-01-11T06:13:01.669Z,20.97
2018-01-11T06:15:29.213Z,21.80
2018-01-11T06:17:56.817Z,20.20
2018-01-11T06:20:25.136Z,20.70
2018-01-11T06:22:53.311Z,23.40
2018-01-11T06:25:20.849Z,21.83
2018-01-11T06:27:48.393Z,20.67
2018-01-11T06:30:15.970Z,21.97
2018-01-11T06:32:43.528Z,22.27
2018-01-11T06:35:11.120Z,20.57
2018-01-11T06:37:38.728Z,20.60
2018-01-11T06:40:06.351Z,20.40
2018-01-11T06:42:33.888Z,21.60
2018-01-11T06:45:01.473Z,20.17
2018-01-11T06:47:29.025Z,19.30
2018-01-11T06:49:56.749Z,21.60
2018-01-11T06:52:24.476Z,21.17
2018-01-11T06:54:52.783Z,19.33
2018-01-11T06:57:20.386Z,19.67
2018-01-11T06:59:47.953Z,18.17
2018-01-11T07:02:15.540Z,20.70
2018-01-11T07:04:43.881Z,26.30
2018-01-11T07:07:11.480Z,20.97
2018-01-11T07:09:39.888Z,23.03
2018-01-11T07:12:07.382Z,25.90
2018-01-11T07:14:34.967Z,26.37
2018-01-11T07:17:02.504Z,26.30
2018-01-11T07:19:30.076Z,25.63
2018-01-11T07:21:57.631Z,25.37
2018-01-11T07:24:25.274Z,26.43
2018-01-11T07:26:52.821Z,22.73
2018-01-11T07:29:20.360Z,25.67
2018-01-11T07:31:48.815Z,22.50
2018-01-11T07:34:17.178Z,20.67
2018-01-11T07:36:44.736Z,22.27
2018-01-11T07:39:13.044Z,22.07
2018-01-11T07:41:40.642Z,21.27
2018-01-11T07:44:08.193Z,22.73
2018-01-11T07:46:35.774Z,20.27
2018-01-11T07:49:03.317Z,20.90
2018-01-11T07:51:30.864Z,20.57
2018-01-11T07:53:58.436Z,21.90
2018-01-11T07:56:25.968Z,23.53
2018-01-11T07:58:53.561Z,22.23
2018-01-11T08:01:21.100Z,25.40
2018-01-11T08:03:48.682Z,25.40
2018-01-11T08:06:16.205Z,21.23
2018-01-11T08:08:43.763Z,21.63
2018-01-11T08:11:11.347Z,19.63
2018-01-11T08:13:38.881Z,23.00
2018-01-11T08:16:06.468Z,22.60
2018-01-11T08:18:34.017Z,23.60
2018-01-11T08:21:01.559Z,22.00
2018-01-11T08:23:29.303Z,23.23
2018-01-11T08:25:57.624Z,22.67
2018-01-11T08:28:25.184Z,22.77
2018-01-11T08:30:52.732Z,24.27
2018-01-11T08:33:20.336Z,24.30
2018-01-11T08:35:48.644Z,24.17
2018-01-11T08:38:16.172Z,22.07
2018-01-11T08:40:43.760Z,23.40
2018-01-11T08:43:11.306Z,23.07
2018-01-11T08:45:38.843Z,26.17
2018-01-11T08:48:06.420Z,24.70
2018-01-11T08:50:33.980Z,25.50
2018-01-11T08:53:03.644Z,24.53
2018-01-11T08:55:32.015Z,25.63
2018-01-11T08:57:59.590Z,23.80
2018-01-11T09:00:27.103Z,26.20
2018-01-11T09:02:54.646Z,25.67
2018-01-11T09:05:22.226Z,27.33
2018-01-11T09:07:49.765Z,26.23
2018-01-11T09:10:17.328Z,27.83
2018-01-11T09:12:45.635Z,26.70
2018-01-11T09:15:13.236Z,28.10
2018-01-11T09:17:40.772Z,27.13
2018-01-11T09:20:08.326Z,27.73
2018-01-11T09:22:35.926Z,25.77
2018-01-11T09:25:03.476Z,27.50
2018-01-11T09:27:31.067Z,24.80
2018-01-11T09:29:58.616Z,26.03
2018-01-11T09:32:26.925Z,27.60
2018-01-11T09:34:54.509Z,26.17
2018-01-11T09:37:22.048Z,26.37
2018-01-11T09:39:49.857Z,27.27
2018-01-11T09:42:17.413Z,26.50
2018-01-11T09:44:46.496Z,30.17
2018-01-11T09:47:14.921Z,28.83
2018-01-11T09:49:42.731Z,29.20
2018-01-11T09:52:10.282Z,31.17
2018-01-11T09:54:37.823Z,30.17
2018-01-11T09:57:05.447Z,34.23
2018-01-11T09:59:33.032Z,29.17
2018-01-11T10:02:00.592Z,31.20
2018-01-11T10:04:28.340Z,33.30
2018-01-11T10:06:56.693Z,31.43
2018-01-11T10:09:25.852Z,28.70
2018-01-11T10:11:53.576Z,29.57
2018-01-11T10:14:21.895Z,30.80
2018-01-11T10:16:49.700Z,29.47
2018-01-11T10:19:17.289Z,31.43
2018-01-11T10:21:44.818Z,33.67
2018-01-11T10:24:12.664Z,31.53
2018-01-11T10:26:40.203Z,34.20
2018-01-11T10:29:07.753Z,30.63
2018-01-11T10:31:35.344Z,32.60
2018-01-11T10:34:04.413Z,31.87
2018-01-11T10:36:32.001Z,33.70
2018-01-11T10:38:59.549Z,36.00
2018-01-11T10:41:27.520Z,33.20
2018-01-11T10:43:55.078Z,32.13
2018-01-11T10:46:22.616Z,29.07
2018-01-11T10:48:50.195Z,29.10
2018-01-11T10:51:17.726Z,30.93
2018-01-11T10:53:45.318Z,29.47
2018-01-11T10:56:13.468Z,26.93
2018-01-11T10:58:41.041Z,28.03
2018-01-11T11:01:14.150Z,29.00
2018-01-11T11:03:42.105Z,26.80
2018-01-11T11:06:09.632Z,28.17
2018-01-11T11:08:37.168Z,28.50
2018-01-11T11:11:04.772Z,27.33
2018-01-11T11:13:32.361Z,28.60
2018-01-11T11:15:59.912Z,29.50
2018-01-11T11:18:27.457Z,25.07
2018-01-11T11:20:55.335Z,21.63
2018-01-11T11:23:22.896Z,19.90
2018-01-11T11:25:50.436Z,18.03
2018-01-11T11:28:18.012Z,19.10
2018-01-11T11:30:45.553Z,19.60
2018-01-11T11:33:13.125Z,20.60
2018-01-11T11:35:40.667Z,20.63
2018-01-11T11:38:08.548Z,18.03
2018-01-11T11:40:36.132Z,17.40
2018-01-11T11:43:05.188Z,18.43
2018-01-11T11:45:33.570Z,16.27
2018-01-11T11:48:01.123Z,17.37
2018-01-11T11:50:29.061Z,16.63
2018-01-11T11:52:56.608Z,16.60
2018-01-11T11:55:24.888Z,18.03
2018-01-11T11:57:53.256Z,17.67
2018-01-11T12:00:21.581Z,17.20
2018-01-11T12:02:49.654Z,15.40
2018-01-11T12:05:17.188Z,15.60
2018-01-11T12:07:45.521Z,15.60
2018-01-11T12:10:13.109Z,10.90
2018-01-11T12:12:41.417Z,16.30
2018-01-11T12:15:09.764Z,17.60
2018-01-11T12:17:37.528Z,15.83
2018-01-11T12:20:06.380Z,15.10
2018-01-11T12:22:33.930Z,16.90
2018-01-11T12:25:01.483Z,14.73
2018-01-11T12:27:29.062Z,15.97
2018-01-11T12:29:56.635Z,17.40
2018-01-11T12:32:25.076Z,16.63
2018-01-11T12:34:52.618Z,17.90
2018-01-11T12:37:20.156Z,17.50
2018-01-11T12:39:47.728Z,17.73
2018-01-11T12:42:16.039Z,15.07
2018-01-11T12:44:43.615Z,14.93
2018-01-11T12:47:11.349Z,16.10
2018-01-11T12:49:38.946Z,17.73
2018-01-11T12:52:06.504Z,15.80
2018-01-11T12:54:34.476Z,15.30
2018-01-11T12:57:02.297Z,17.30
2018-01-11T12:59:29.879Z,16.63
2018-01-11T13:01:57.449Z,16.93
2018-01-11T13:04:25.005Z,16.53
2018-01-11T13:06:52.586Z,17.60
2018-01-11T13:09:20.151Z,16.67
2018-01-11T13:11:48.101Z,17.83
2018-01-11T13:14:15.650Z,17.10
2018-01-11T13:16:43.193Z,16.47
2018-01-11T13:19:10.790Z,16.60
2018-01-11T13:21:38.327Z,15.30
2018-01-11T13:24:06.133Z,18.27
2018-01-11T13:26:33.734Z,14.33
2018-01-11T13:29:01.725Z,17.30
2018-01-11T13:31:29.283Z,15.20
2018-01-11T13:33:56.812Z,15.30
2018-01-11T13:36:24.401Z,19.40
2018-01-11T13:38:51.949Z,16.07
2018-01-11T13:41:19.566Z,16.40
2018-01-11T13:43:47.116Z,16.53
2018-01-11T13:46:15.760Z,17.30
2018-01-11T13:48:43.310Z,17.77
2018-01-11T13:51:10.843Z,16.80
2018-01-11T13:53:38.428Z,17.37
2018-01-11T13:56:06.076Z,17.73
2018-01-11T13:58:33.692Z,17.83
2018-01-11T14:01:02.020Z,17.00
2018-01-11T14:03:29.625Z,16.63
2018-01-11T14:05:57.200Z,17.27
2018-01-11T14:08:25.628Z,16.57
2018-01-11T14:10:54.033Z,19.27
2018-01-11T14:13:21.579Z,17.30
2018-01-11T14:15:49.191Z,18.57
2018-01-11T14:18:17.511Z,17.67
2018-01-11T14:20:45.104Z,19.00
2018-01-11T14:23:12.672Z,17.57
2018-01-11T14:25:40.831Z,18.50
2018-01-11T14:28:08.396Z,18.53
2018-01-11T14:30:37.455Z,20.67
2018-01-11T14:33:05.048Z,20.30
2018-01-11T14:35:32.628Z,19.60
2018-01-11T14:38:00.222Z,18.93
2018-01-11T14:40:27.863Z,20.77
2018-01-11T14:42:55.440Z,20.53
2018-01-11T14:45:23.171Z,20.27
2018-01-11T14:47:51.517Z,21.17
2018-01-11T14:50:19.078Z,21.33
2018-01-11T14:52:46.939Z,18.73
2018-01-11T14:55:14.509Z,20.33
2018-01-11T14:57:42.070Z,20.47
2018-01-11T15:00:09.674Z,20.70
2018-01-11T15:02:37.294Z,19.23
2018-01-11T15:05:04.935Z,20.20
2018-01-11T15:07:32.512Z,20.40
2018-01-11T15:10:00.468Z,20.87
2018-01-11T15:12:28.032Z,20.43
2018-01-11T15:14:55.625Z,21.57
2018-01-11T15:17:24.299Z,22.47
2018-01-11T15:19:52.003Z,22.53
2018-01-11T15:22:19.876Z,19.80
2018-01-11T15:24:47.534Z,20.27
2018-01-11T15:27:15.115Z,22.00
2018-01-11T15:29:42.721Z,22.83
2018-01-11T15:32:10.499Z,21.17
2018-01-11T15:34:38.901Z,20.90
2018-01-11T15:37:06.479Z,21.77
2018-01-11T15:39:34.100Z,21.20
2018-01-11T15:42:02.418Z,22.47
2018-01-11T15:44:30.337Z,21.77
2018-01-11T15:46:57.872Z,23.10
2018-01-11T15:49:25.419Z,21.80
2018-01-11T15:51:53.017Z,21.90
2018-01-11T15:54:21.341Z,23.00
2018-01-11T15:56:48.947Z,21.20
2018-01-11T15:59:17.274Z,22.67
2018-01-11T16:01:45.131Z,23.90
2018-01-11T16:04:12.707Z,23.50
2018-01-11T16:06:40.230Z,22.07
2018-01-11T16:09:08.042Z,23.10
2018-01-11T16:11:35.597Z,25.77
2018-01-11T16:14:03.600Z,24.63
2018-01-11T16:16:32.090Z,22.50
2018-01-11T16:19:00.518Z,21.87
2018-01-11T16:21:28.096Z,22.90
2018-01-11T16:23:55.656Z,23.57
2018-01-11T16:26:23.280Z,23.37
2018-01-11T16:28:51.019Z,23.40
2018-01-11T16:31:19.498Z,24.10
2018-01-11T16:33:47.825Z,23.67
2018-01-11T16:36:15.432Z,23.37
2018-01-11T16:38:43.048Z,22.77
2018-01-11T16:41:10.929Z,23.37
2018-01-11T16:43:38.518Z,24.10
2018-01-11T16:46:06.082Z,23.23
2018-01-11T16:48:34.437Z,22.70
2018-01-11T16:51:02.019Z,21.03
2018-01-11T16:53:29.646Z,23.50
2018-01-11T16:55:57.217Z,22.13
2018-01-11T16:58:24.829Z,22.30
2018-01-11T17:00:52.392Z,25.67
2018-01-11T17:03:19.951Z,22.50
2018-01-11T17:05:47.561Z,23.87
2018-01-11T17:08:15.118Z,25.57
2018-01-11T17:10:44.509Z,24.90
2018-01-11T17:13:12.082Z,21.73
2018-01-11T17:15:39.643Z,23.57
2018-01-11T17:18:07.249Z,20.00
2018-01-11T17:20:34.817Z,22.50
2018-01-11T17:23:02.565Z,26.47
2018-01-11T17:25:30.145Z,23.40
2018-01-11T17:27:57.815Z,23.20
2018-01-11T17:30:25.391Z,22.27
2018-01-11T17:32:53.454Z,25.87
2018-01-11T17:35:21.116Z,24.40
2018-01-11T17:37:48.716Z,23.93
2018-01-11T17:40:16.310Z,23.07
2018-01-11T17:42:43.873Z,89.63
2018-01-11T17:45:11.467Z,43.63
2018-01-11T17:47:39.043Z,21.80
2018-01-11T17:50:07.721Z,21.00
2018-01-11T17:52:35.283Z,21.70
2018-01-11T17:55:02.858Z,20.63
2018-01-11T17:57:35.505Z,24.77
2018-01-11T18:00:04.000Z,21.80
2018-01-11T18:02:32.445Z,23.63
2018-01-11T18:05:00.010Z,20.77
2018-01-11T18:07:28.078Z,22.87
2018-01-11T18:09:55.666Z,24.47
2018-01-11T18:12:23.233Z,25.23
2018-01-11T18:14:50.850Z,20.93
2018-01-11T18:17:18.413Z,21.47
2018-01-11T18:19:46.014Z,24.40
2018-01-11T18:22:13.565Z,26.03
2018-01-11T18:24:41.535Z,24.30
2018-01-11T18:27:09.097Z,23.00
2018-01-11T18:29:36.672Z,26.27
2018-01-11T18:32:05.029Z,24.47
2018-01-11T18:34:32.598Z,26.00
2018-01-11T18:37:00.177Z,25.73
2018-01-11T18:39:27.746Z,22.53
2018-01-11T18:41:55.341Z,25.57
2018-01-11T18:44:22.907Z,24.37
2018-01-11T18:46:50.751Z,21.90
2018-01-11T18:49:18.517Z,26.77
2018-01-11T18:51:46.062Z,27.70
2018-01-11T18:54:14.443Z,25.50
2018-01-11T18:56:42.018Z,24.57
2018-01-11T18:59:09.622Z,27.20
2018-01-11T19:01:37.170Z,26.33
2018-01-11T19:04:05.146Z,26.20
2018-01-11T19:06:32.709Z,27.77
2018-01-11T19:09:00.269Z,25.80
2018-01-11T19:11:27.871Z,26.27
2018-01-11T19:13:55.443Z,25.63
2018-01-11T19:16:23.034Z,25.93
2018-01-11T19:18:50.637Z,26.77
2018-01-11T19:21:18.581Z,24.87
2018-01-11T19:23:46.130Z,26.60
2018-01-11T19:26:13.696Z,27.13
2018-01-11T19:28:41.400Z,26.40
2018-01-11T19:31:08.975Z,24.57
2018-01-11T19:33:36.583Z,27.53
2018-01-11T19:36:05.673Z,24.27
2018-01-11T19:38:33.327Z,27.20
2018-01-11T19:41:01.793Z,27.47
2018-01-11T19:43:30.454Z,45.47
2018-01-11T19:45:58.030Z,56.23
2018-01-11T19:48:25.683Z,51.17
2018-01-11T19:50:53.298Z,48.37
2018-01-11T19:53:20.876Z,49.13
2018-01-11T19:55:49.498Z,40.73
2018-01-11T19:58:17.093Z,29.50
2018-01-11T20:00:44.652Z,29.53
2018-01-11T20:03:12.418Z,27.60
2018-01-11T20:05:40.004Z,26.07
2018-01-11T20:08:08.368Z,26.30
2018-01-11T20:10:35.949Z,26.23
2018-01-11T20:13:03.974Z,28.90
2018-01-11T20:15:31.591Z,26.27
2018-01-11T20:17:59.137Z,25.50
2018-01-11T20:20:26.797Z,26.00
2018-01-11T20:22:55.105Z,26.70
2018-01-11T20:25:22.712Z,24.13
2018-01-11T20:27:50.261Z,26.00
2018-01-11T20:30:18.234Z,25.93
2018-01-11T20:32:45.807Z,27.27
2018-01-11T20:35:13.379Z,25.70
2018-01-11T20:37:41.742Z,26.20
2018-01-11T20:40:09.422Z,30.60
2018-01-11T20:42:37.052Z,30.03
2018-01-11T20:45:05.407Z,31.60
2018-01-11T20:47:33.265Z,31.17
2018-01-11T20:50:00.873Z,32.23
2018-01-11T20:52:28.462Z,29.50
2018-01-11T20:54:56.057Z,31.67
2018-01-11T20:57:23.703Z,29.00
2018-01-11T20:59:51.334Z,28.13
2018-01-11T21:02:18.909Z,30.00
2018-01-11T21:04:46.502Z,31.73
2018-01-11T21:07:14.071Z,30.80
2018-01-11T21:09:42.027Z,30.67
2018-01-11T21:12:09.573Z,30.97
2018-01-11T21:14:37.106Z,31.27
2018-01-11T21:17:04.711Z,29.07
2018-01-11T21:19:32.345Z,33.77
2018-01-11T21:21:59.935Z,29.00
2018-01-11T21:24:27.503Z,28.40
2018-01-11T21:26:56.896Z,29.47
2018-01-11T21:29:24.463Z,30.53
2018-01-11T21:31:52.055Z,30.20
2018-01-11T21:34:20.391Z,30.47
2018-01-11T21:36:47.963Z,28.27
2018-01-11T21:39:15.548Z,28.23
2018-01-11T21:41:43.882Z,29.97
2018-01-11T21:44:11.854Z,30.53
2018-01-11T21:46:39.417Z,30.13
2018-01-11T21:49:07.226Z,28.63
2018-01-11T21:51:34.837Z,29.27
2018-01-11T21:54:02.379Z,28.40
2018-01-11T21:56:30.016Z,29.23
2018-01-11T21:58:57.565Z,28.50
2018-01-11T22:01:25.493Z,30.70
2018-01-11T22:03:53.090Z,27.60
2018-01-11T22:06:20.644Z,29.70
2018-01-11T22:08:49.018Z,28.20
2018-01-11T22:11:16.964Z,31.17
2018-01-11T22:13:44.658Z,28.40
2018-01-11T22:16:13.974Z,87.53
2018-01-11T22:18:42.196Z,29.80
2018-01-11T22:21:10.625Z,30.30
2018-01-11T22:23:38.333Z,31.00
2018-01-11T22:26:05.920Z,30.13
2018-01-11T22:28:33.619Z,32.07
2018-01-11T22:31:03.690Z,31.00
2018-01-11T22:33:32.737Z,30.40
2018-01-11T22:36:01.244Z,33.27
2018-01-11T22:38:28.839Z,29.90
2018-01-11T22:40:57.485Z,30.87
2018-01-11T22:43:25.000Z,28.60
2018-01-11T22:45:52.561Z,29.00
2018-01-11T22:48:20.149Z,30.90
2018-01-11T22:50:47.682Z,25.30
2018-01-11T22:53:15.283Z,29.87
2018-01-11T22:55:42.856Z,25.43
2018-01-11T22:58:10.450Z,22.80
2018-01-11T23:00:38.007Z,31.37
2018-01-11T23:03:06.671Z,34.37
2018-01-11T23:05:34.240Z,29.20
2018-01-11T23:08:01.809Z,27.33
2018-01-11T23:10:30.183Z,28.20
2018-01-11T23:12:57.760Z,29.77
2018-01-11T23:15:26.119Z,28.87
2018-01-11T23:17:53.680Z,27.70
2018-01-11T23:20:22.327Z,28.90
2018-01-11T23:22:49.880Z,27.00
2018-01-11T23:25:17.443Z,30.10
2018-01-11T23:27:45.038Z,28.77
2018-01-11T23:30:14.106Z,29.87
2018-01-11T23:32:41.696Z,29.10
2018-01-11T23:35:09.334Z,28.87
2018-01-11T23:37:37.201Z,31.17
2018-01-11T23:40:04.744Z,28.90
2018-01-11T23:42:32.300Z,25.93
2018-01-11T23:44:59.857Z,30.80
2018-01-11T23:47:27.504Z,30.53
2018-01-11T23:49:55.099Z,28.90
2018-01-11T23:52:22.641Z,29.47
2018-01-11T23:54:50.234Z,27.10
2018-01-11T23:57:17.779Z,30.70
2018-01-11T23:59:45.737Z,28.33
